sensor_id;sensor_type;location;lat;lon;timestamp;pressure;altitude;pressure_sealevel;temperature;humidity
11440;BME280;5776;51.814;4.510;2023-07-30T00:02:20;100954.44;;;17.00;100.00
11440;BME280;5776;51.814;4.510;2023-07-30T00:04:46;100955.22;;;17.01;100.00
11440;BME280;5776;51.814;4.510;2023-07-30T00:07:13;100948.47;;;16.98;100.00
11440;BME280;5776;51.814;4.510;2023-07-30T00:09:39;100953.16;;;16.98;100.00
11440;BME280;5776;51.814;4.510;2023-07-30T00:12:06;100960.53;;;16.97;100.00
11440;BME280;5776;51.814;4.510;2023-07-30T00:14:33;100956.53;;;16.95;100.00
11440;BME280;5776;51.814;4.510;2023-07-30T00:16:59;100961.22;;;16.94;100.00
11440;BME280;5776;51.814;4.510;2023-07-30T00:19:24;100961.53;;;16.93;100.00
11440;BME280;5776;51.814;4.510;2023-07-30T00:21:50;100957.97;;;16.92;100.00
11440;BME280;5776;51.814;4.510;2023-07-30T00:24:16;100957.19;;;16.92;100.00
11440;BME280;5776;51.814;4.510;2023-07-30T00:26:42;100959.78;;;16.88;100.00
11440;BME280;5776;51.814;4.510;2023-07-30T00:29:08;100957.84;;;16.89;100.00
11440;BME280;5776;51.814;4.510;2023-07-30T00:31:34;100962.84;;;16.87;100.00
11440;BME280;5776;51.814;4.510;2023-07-30T00:34:00;100965.09;;;16.84;100.00
11440;BME280;5776;51.814;4.510;2023-07-30T00:36:26;100969.13;;;16.87;100.00
11440;BME280;5776;51.814;4.510;2023-07-30T00:38:52;100969.47;;;16.86;100.00
11440;BME280;5776;51.814;4.510;2023-07-30T00:41:18;100968.66;;;16.85;100.00
11440;BME280;5776;51.814;4.510;2023-07-30T00:43:44;100967.06;;;16.84;100.00
11440;BME280;5776;51.814;4.510;2023-07-30T00:46:11;100965.91;;;16.85;100.00
11440;BME280;5776;51.814;4.510;2023-07-30T00:48:38;100975.75;;;16.86;100.00
11440;BME280;5776;51.814;4.510;2023-07-30T00:51:04;100977.22;;;16.83;100.00
11440;BME280;5776;51.814;4.510;2023-07-30T00:53:30;100978.50;;;16.86;100.00
11440;BME280;5776;51.814;4.510;2023-07-30T00:55:56;100982.38;;;16.85;100.00
11440;BME280;5776;51.814;4.510;2023-07-30T00:58:23;100984.31;;;16.84;100.00
11440;BME280;5776;51.814;4.510;2023-07-30T01:00:51;100982.38;;;16.85;100.00
11440;BME280;5776;51.814;4.510;2023-07-30T01:03:18;100979.63;;;16.85;100.00
11440;BME280;5776;51.814;4.510;2023-07-30T01:05:45;100976.25;;;16.88;100.00
11440;BME280;5776;51.814;4.510;2023-07-30T01:08:11;100980.09;;;16.87;100.00
11440;BME280;5776;51.814;4.510;2023-07-30T01:10:38;100988.34;;;16.87;100.00
11440;BME280;5776;51.814;4.510;2023-07-30T01:13:07;100978.50;;;16.86;100.00
11440;BME280;5776;51.814;4.510;2023-07-30T01:15:36;100976.88;;;16.85;100.00
11440;BME280;5776;51.814;4.510;2023-07-30T01:18:02;100979.78;;;16.89;100.00
11440;BME280;5776;51.814;4.510;2023-07-30T01:20:32;100977.38;;;16.87;100.00
11440;BME280;5776;51.814;4.510;2023-07-30T01:22:59;100985.59;;;16.87;100.00
11440;BME280;5776;51.814;4.510;2023-07-30T01:25:28;100989.97;;;16.88;100.00
11440;BME280;5776;51.814;4.510;2023-07-30T01:27:59;100988.34;;;16.87;100.00
11440;BME280;5776;51.814;4.510;2023-07-30T01:30:29;100989.97;;;16.88;100.00
11440;BME280;5776;51.814;4.510;2023-07-30T01:32:56;100984.78;;;16.87;100.00
11440;BME280;5776;51.814;4.510;2023-07-30T01:35:26;100986.06;;;16.89;100.00
11440;BME280;5776;51.814;4.510;2023-07-30T01:37:52;100988.81;;;16.89;100.00
11440;BME280;5776;51.814;4.510;2023-07-30T01:40:20;100984.47;;;16.88;100.00
11440;BME280;5776;51.814;4.510;2023-07-30T01:42:46;100989.97;;;16.88;100.00
11440;BME280;5776;51.814;4.510;2023-07-30T01:45:12;100986.06;;;16.89;100.00
11440;BME280;5776;51.814;4.510;2023-07-30T01:47:38;100988.81;;;16.89;100.00
11440;BME280;5776;51.814;4.510;2023-07-30T01:50:04;100996.25;;;16.89;100.00
11440;BME280;5776;51.814;4.510;2023-07-30T01:52:34;100989.13;;;16.88;100.00
11440;BME280;5776;51.814;4.510;2023-07-30T01:55:00;100993.81;;;16.87;100.00
11440;BME280;5776;51.814;4.510;2023-07-30T01:57:27;100991.88;;;16.88;100.00
11440;BME280;5776;51.814;4.510;2023-07-30T01:59:53;100993.81;;;16.87;100.00
11440;BME280;5776;51.814;4.510;2023-07-30T02:02:19;100996.06;;;16.85;100.00
11440;BME280;5776;51.814;4.510;2023-07-30T02:04:44;100998.03;;;16.84;100.00
11440;BME280;5776;51.814;4.510;2023-07-30T02:07:10;100997.22;;;16.84;100.00
11440;BME280;5776;51.814;4.510;2023-07-30T02:09:36;100992.88;;;16.83;100.00
11440;BME280;5776;51.814;4.510;2023-07-30T02:12:02;100990.47;;;16.81;100.00
11440;BME280;5776;51.814;4.510;2023-07-30T02:14:28;100988.84;;;16.80;100.00
11440;BME280;5776;51.814;4.510;2023-07-30T02:16:54;100990.47;;;16.81;100.00
11440;BME280;5776;51.814;4.510;2023-07-30T02:19:20;100983.69;;;16.79;100.00
11440;BME280;5776;51.814;4.510;2023-07-30T02:21:46;100987.56;;;16.78;100.00
11440;BME280;5776;51.814;4.510;2023-07-30T02:24:11;100988.66;;;16.77;100.00
11440;BME280;5776;51.814;4.510;2023-07-30T02:26:38;100990.59;;;16.76;100.00
11440;BME280;5776;51.814;4.510;2023-07-30T02:29:04;100988.16;;;16.75;100.00
11440;BME280;5776;51.814;4.510;2023-07-30T02:31:30;100988.50;;;16.73;100.00
11440;BME280;5776;51.814;4.510;2023-07-30T02:33:56;100986.88;;;16.72;100.00
11440;BME280;5776;51.814;4.510;2023-07-30T02:36:22;100980.59;;;16.72;100.00
11440;BME280;5776;51.814;4.510;2023-07-30T02:38:48;100983.34;;;16.72;100.00
11440;BME280;5776;51.814;4.510;2023-07-30T02:41:14;100981.25;;;16.69;100.00
11440;BME280;5776;51.814;4.510;2023-07-30T02:43:41;100986.75;;;16.69;100.00
11440;BME280;5776;51.814;4.510;2023-07-30T02:46:07;100980.78;;;16.67;100.00
11440;BME280;5776;51.814;4.510;2023-07-30T02:48:33;100990.59;;;16.68;100.00
11440;BME280;5776;51.814;4.510;2023-07-30T02:51:00;100979.63;;;16.68;100.00
11440;BME280;5776;51.814;4.510;2023-07-30T02:53:26;100976.56;;;16.69;100.00
11440;BME280;5776;51.814;4.510;2023-07-30T02:55:52;100979.97;;;16.66;100.00
11440;BME280;5776;51.814;4.510;2023-07-30T02:58:18;100974.81;;;16.64;100.00
11440;BME280;5776;51.814;4.510;2023-07-30T03:00:44;100989.66;;;16.63;100.00
11440;BME280;5776;51.814;4.510;2023-07-30T03:03:10;100976.44;;;16.66;100.00
11440;BME280;5776;51.814;4.510;2023-07-30T03:05:36;100978.34;;;16.65;100.00
11440;BME280;5776;51.814;4.510;2023-07-30T03:08:01;100975.59;;;16.65;100.00
11440;BME280;5776;51.814;4.510;2023-07-30T03:10:27;100972.53;;;16.67;100.00
11440;BME280;5776;51.814;4.510;2023-07-30T03:12:53;100982.38;;;16.68;100.00
11440;BME280;5776;51.814;4.510;2023-07-30T03:15:20;100982.84;;;16.70;100.00
11440;BME280;5776;51.814;4.510;2023-07-30T03:17:45;100976.88;;;16.68;100.00
11440;BME280;5776;51.814;4.510;2023-07-30T03:20:11;100986.41;;;16.70;100.00
11440;BME280;5776;51.814;4.510;2023-07-30T03:22:37;100984.00;;;16.69;100.00
11440;BME280;5776;51.814;4.510;2023-07-30T03:25:04;100979.63;;;16.68;100.00
11440;BME280;5776;51.814;4.510;2023-07-30T03:27:30;100982.84;;;16.70;100.00
11440;BME280;5776;51.814;4.510;2023-07-30T03:29:55;100991.44;;;16.68;100.00
11440;BME280;5776;51.814;4.510;2023-07-30T03:32:21;100982.06;;;16.69;100.00
11440;BME280;5776;51.814;4.510;2023-07-30T03:34:47;100979.63;;;16.68;100.00
11440;BME280;5776;51.814;4.510;2023-07-30T03:37:13;100985.78;;;16.64;100.00
11440;BME280;5776;51.814;4.510;2023-07-30T03:39:38;100977.53;;;16.64;100.00
11440;BME280;5776;51.814;4.510;2023-07-30T03:42:04;100985.78;;;16.64;100.00
11440;BME280;5776;51.814;4.510;2023-07-30T03:44:30;100973.19;;;16.63;100.00
11440;BME280;5776;51.814;4.510;2023-07-30T03:46:56;100986.75;;;16.60;100.00
11440;BME280;5776;51.814;4.510;2023-07-30T03:49:23;100988.69;;;16.59;100.00
11440;BME280;5776;51.814;4.510;2023-07-30T03:51:49;100988.69;;;16.59;100.00
11440;BME280;5776;51.814;4.510;2023-07-30T03:54:15;100989.81;;;16.58;100.00
11440;BME280;5776;51.814;4.510;2023-07-30T03:56:40;100990.00;;;16.53;100.00
11440;BME280;5776;51.814;4.510;2023-07-30T03:59:06;100993.53;;;16.54;100.00
11440;BME280;5776;51.814;4.510;2023-07-30T04:01:32;100987.75;;;16.55;100.00
11440;BME280;5776;51.814;4.510;2023-07-30T04:03:59;100989.66;;;16.55;100.00
11440;BME280;5776;51.814;4.510;2023-07-30T04:06:25;100996.94;;;16.51;100.00
11440;BME280;5776;51.814;4.510;2023-07-30T04:08:51;100985.16;;;16.50;100.00
11440;BME280;5776;51.814;4.510;2023-07-30T04:11:17;100989.03;;;16.49;100.00
11440;BME280;5776;51.814;4.510;2023-07-30T04:13:43;100996.44;;;16.49;100.00
11440;BME280;5776;51.814;4.510;2023-07-30T04:16:10;101000.31;;;16.48;100.00
11440;BME280;5776;51.814;4.510;2023-07-30T04:18:35;100994.84;;;16.48;100.00
11440;BME280;5776;51.814;4.510;2023-07-30T04:21:01;100995.16;;;16.46;100.00
11440;BME280;5776;51.814;4.510;2023-07-30T04:23:27;100997.59;;;16.48;100.00
11440;BME280;5776;51.814;4.510;2023-07-30T04:25:53;101000.94;;;16.45;100.00
11440;BME280;5776;51.814;4.510;2023-07-30T04:28:19;101001.28;;;16.43;100.00
11440;BME280;5776;51.814;4.510;2023-07-30T04:30:45;101006.13;;;16.46;100.00
11440;BME280;5776;51.814;4.510;2023-07-30T04:33:13;100997.41;;;16.44;100.00
11440;BME280;5776;51.814;4.510;2023-07-30T04:35:40;101001.75;;;16.45;100.00
11440;BME280;5776;51.814;4.510;2023-07-30T04:38:06;101010.81;;;16.46;100.00
11440;BME280;5776;51.814;4.510;2023-07-30T04:40:31;101013.38;;;16.42;100.00
11440;BME280;5776;51.814;4.510;2023-07-30T04:42:57;101006.78;;;16.43;100.00
11440;BME280;5776;51.814;4.510;2023-07-30T04:45:23;101009.03;;;16.41;100.00
11440;BME280;5776;51.814;4.510;2023-07-30T04:47:49;101007.88;;;16.42;100.00
11440;BME280;5776;51.814;4.510;2023-07-30T04:50:15;101018.84;;;16.42;100.00
11440;BME280;5776;51.814;4.510;2023-07-30T04:52:41;101007.88;;;16.42;100.00
11440;BME280;5776;51.814;4.510;2023-07-30T04:55:07;101010.63;;;16.42;100.00
11440;BME280;5776;51.814;4.510;2023-07-30T04:57:33;101010.63;;;16.42;100.00
11440;BME280;5776;51.814;4.510;2023-07-30T04:59:59;101010.97;;;16.40;100.00
11440;BME280;5776;51.814;4.510;2023-07-30T05:02:24;101013.06;;;16.44;100.00
11440;BME280;5776;51.814;4.510;2023-07-30T05:04:51;101017.41;;;16.45;100.00
11440;BME280;5776;51.814;4.510;2023-07-30T05:07:17;101010.63;;;16.42;100.00
11440;BME280;5776;51.814;4.510;2023-07-30T05:09:43;101008.38;;;16.44;100.00
11440;BME280;5776;51.814;4.510;2023-07-30T05:12:09;101016.28;;;16.46;100.00
11440;BME280;5776;51.814;4.510;2023-07-30T05:14:35;101019.34;;;16.44;100.00
11440;BME280;5776;51.814;4.510;2023-07-30T05:17:01;101017.41;;;16.45;100.00
11440;BME280;5776;51.814;4.510;2023-07-30T05:19:29;101026.44;;;16.45;100.00
11440;BME280;5776;51.814;4.510;2023-07-30T05:21:55;101014.66;;;16.45;100.00
11440;BME280;5776;51.814;4.510;2023-07-30T05:24:21;101024.03;;;16.44;100.00
11440;BME280;5776;51.814;4.510;2023-07-30T05:26:46;101029.16;;;16.45;100.00
11440;BME280;5776;51.814;4.510;2023-07-30T05:29:12;101022.72;;;16.41;100.00
11440;BME280;5776;51.814;4.510;2023-07-30T05:31:38;101023.84;;;16.40;100.00
11440;BME280;5776;51.814;4.510;2023-07-30T05:34:04;101020.94;;;16.45;100.00
11440;BME280;5776;51.814;4.510;2023-07-30T05:36:30;101019.34;;;16.44;100.00
11440;BME280;5776;51.814;4.510;2023-07-30T05:38:56;101028.06;;;16.46;100.00
11440;BME280;5776;51.814;4.510;2023-07-30T05:41:22;101018.69;;;16.47;100.00
11440;BME280;5776;51.814;4.510;2023-07-30T05:43:48;101020.94;;;16.45;100.00
11440;BME280;5776;51.814;4.510;2023-07-30T05:46:14;101025.00;;;16.48;100.00
11440;BME280;5776;51.814;4.510;2023-07-30T05:48:40;101018.69;;;16.47;100.00
11440;BME280;5776;51.814;4.510;2023-07-30T05:51:06;101020.81;;;16.50;100.00
11440;BME280;5776;51.814;4.510;2023-07-30T05:53:32;101025.28;;;16.55;100.00
11440;BME280;5776;51.814;4.510;2023-07-30T05:55:58;101012.72;;;16.54;100.00
11440;BME280;5776;51.814;4.510;2023-07-30T05:58:24;101019.81;;;16.55;100.00
11440;BME280;5776;51.814;4.510;2023-07-30T06:00:50;101012.06;;;16.57;100.00
11440;BME280;5776;51.814;4.510;2023-07-30T06:03:15;101025.78;;;16.57;100.00
11440;BME280;5776;51.814;4.510;2023-07-30T06:05:42;101028.03;;;16.55;100.00
11440;BME280;5776;51.814;4.510;2023-07-30T06:08:08;101029.66;;;16.56;100.00
11440;BME280;5776;51.814;4.510;2023-07-30T06:10:35;101023.03;;;16.57;100.00
11440;BME280;5776;51.814;4.510;2023-07-30T06:13:03;101029.16;;;16.62;100.00
11440;BME280;5776;51.814;4.510;2023-07-30T06:15:30;101030.31;;;16.61;100.00
11440;BME280;5776;51.814;4.510;2023-07-30T06:17:56;101034.19;;;16.60;100.00
11440;BME280;5776;51.814;4.510;2023-07-30T06:20:22;101034.63;;;16.62;100.00
11440;BME280;5776;51.814;4.510;2023-07-30T06:22:48;101042.88;;;16.62;100.00
11440;BME280;5776;51.814;4.510;2023-07-30T06:25:13;101038.22;;;16.63;100.00
11440;BME280;5776;51.814;4.510;2023-07-30T06:27:40;101033.53;;;16.63;100.00
11440;BME280;5776;51.814;4.510;2023-07-30T06:30:07;101042.56;;;16.64;100.00
11440;BME280;5776;51.814;4.510;2023-07-30T06:32:33;101037.38;;;16.62;100.00
11440;BME280;5776;51.814;4.510;2023-07-30T06:34:59;101031.44;;;16.60;100.00
11440;BME280;5776;51.814;4.510;2023-07-30T06:37:24;101032.25;;;16.61;100.00
11440;BME280;5776;51.814;4.510;2023-07-30T06:39:50;101038.03;;;16.59;100.00
11440;BME280;5776;51.814;4.510;2023-07-30T06:42:17;101041.25;;;16.61;100.00
11440;BME280;5776;51.814;4.510;2023-07-30T06:44:43;101038.22;;;16.63;100.00
11440;BME280;5776;51.814;4.510;2023-07-30T06:47:09;101051.59;;;16.64;100.00
11440;BME280;5776;51.814;4.510;2023-07-30T06:49:34;101050.47;;;16.66;100.00
11440;BME280;5776;51.814;4.510;2023-07-30T06:52:00;101046.91;;;16.65;100.00
11440;BME280;5776;51.814;4.510;2023-07-30T06:54:28;101041.91;;;16.67;100.00
11440;BME280;5776;51.814;4.510;2023-07-30T06:56:54;101048.66;;;16.70;100.00
11440;BME280;5776;51.814;4.510;2023-07-30T06:59:20;101043.97;;;16.70;100.00
11440;BME280;5776;51.814;4.510;2023-07-30T07:01:45;101043.69;;;16.72;100.00
11440;BME280;5776;51.814;4.510;2023-07-30T07:04:11;101037.06;;;16.73;100.00
11440;BME280;5776;51.814;4.510;2023-07-30T07:06:37;101043.03;;;16.75;100.00
11440;BME280;5776;51.814;4.510;2023-07-30T07:09:02;101043.50;;;16.77;100.00
11440;BME280;5776;51.814;4.510;2023-07-30T07:11:28;101046.75;;;16.79;100.00
11440;BME280;5776;51.814;4.510;2023-07-30T07:13:53;101042.88;;;16.80;100.00
11440;BME280;5776;51.814;4.510;2023-07-30T07:16:19;101048.38;;;16.80;100.00
11440;BME280;5776;51.814;4.510;2023-07-30T07:18:44;101042.56;;;16.81;100.00
11440;BME280;5776;51.814;4.510;2023-07-30T07:21:10;101042.56;;;16.81;100.00
11440;BME280;5776;51.814;4.510;2023-07-30T07:23:36;101043.06;;;16.83;100.00
11440;BME280;5776;51.814;4.510;2023-07-30T07:26:02;101050.13;;;16.84;100.00
11440;BME280;5776;51.814;4.510;2023-07-30T07:28:28;101053.50;;;16.90;100.00
11440;BME280;5776;51.814;4.510;2023-07-30T07:30:54;101055.63;;;16.93;100.00
11440;BME280;5776;51.814;4.510;2023-07-30T07:33:20;101062.06;;;16.97;100.00
11440;BME280;5776;51.814;4.510;2023-07-30T07:35:45;101063.50;;;17.03;100.00
11440;BME280;5776;51.814;4.510;2023-07-30T07:38:11;101069.13;;;17.07;100.00
11440;BME280;5776;51.814;4.510;2023-07-30T07:40:37;101068.16;;;17.12;100.00
11440;BME280;5776;51.814;4.510;2023-07-30T07:43:05;101068.66;;;17.14;100.00
11440;BME280;5776;51.814;4.510;2023-07-30T07:45:30;101072.69;;;17.16;100.00
11440;BME280;5776;51.814;4.510;2023-07-30T07:47:56;101083.78;;;17.20;100.00
11440;BME280;5776;51.814;4.510;2023-07-30T07:50:21;101090.44;;;17.19;100.00
11440;BME280;5776;51.814;4.510;2023-07-30T07:52:47;101086.88;;;17.18;100.00
11440;BME280;5776;51.814;4.510;2023-07-30T07:55:12;101092.03;;;17.20;100.00
11440;BME280;5776;51.814;4.510;2023-07-30T07:57:37;101090.91;;;17.21;100.00
11440;BME280;5776;51.814;4.510;2023-07-30T08:00:03;101085.44;;;17.21;100.00
11440;BME280;5776;51.814;4.510;2023-07-30T08:02:30;101090.91;;;17.21;100.00
11440;BME280;5776;51.814;4.510;2023-07-30T08:04:56;101085.44;;;17.21;100.00
11440;BME280;5776;51.814;4.510;2023-07-30T08:07:21;101084.28;;;17.22;100.00
11440;BME280;5776;51.814;4.510;2023-07-30T08:09:48;101093.81;;;17.24;100.00
11440;BME280;5776;51.814;4.510;2023-07-30T08:12:13;101087.50;;;17.24;100.00
11440;BME280;5776;51.814;4.510;2023-07-30T08:14:40;101088.00;;;17.26;100.00
11440;BME280;5776;51.814;4.510;2023-07-30T08:17:06;101088.47;;;17.28;100.00
11440;BME280;5776;51.814;4.510;2023-07-30T08:19:31;101081.84;;;17.29;100.00
11440;BME280;5776;51.814;4.510;2023-07-30T08:21:58;101090.56;;;17.31;100.00
11440;BME280;5776;51.814;4.510;2023-07-30T08:24:24;101099.28;;;17.33;100.00
11440;BME280;5776;51.814;4.510;2023-07-30T08:26:49;101096.19;;;17.35;100.00
11440;BME280;5776;51.814;4.510;2023-07-30T08:29:14;101087.78;;;17.40;100.00
11440;BME280;5776;51.814;4.510;2023-07-30T08:31:40;101086.31;;;17.42;100.00
11440;BME280;5776;51.814;4.510;2023-07-30T08:34:06;101091.16;;;17.45;100.00
11440;BME280;5776;51.814;4.510;2023-07-30T08:36:32;101085.03;;;17.48;100.00
11440;BME280;5776;51.814;4.510;2023-07-30T08:38:57;101088.69;;;17.53;100.00
11440;BME280;5776;51.814;4.510;2023-07-30T08:41:23;101092.41;;;17.57;100.00
11440;BME280;5776;51.814;4.510;2023-07-30T08:43:48;101089.47;;;17.62;100.00
11440;BME280;5776;51.814;4.510;2023-07-30T08:46:15;101083.00;;;17.66;100.00
11440;BME280;5776;51.814;4.510;2023-07-30T08:48:41;101095.28;;;17.69;100.00
11440;BME280;5776;51.814;4.510;2023-07-30T08:51:06;101088.16;;;17.68;100.00
11440;BME280;5776;51.814;4.510;2023-07-30T08:53:32;101089.91;;;17.73;100.00
11440;BME280;5776;51.814;4.510;2023-07-30T08:55:57;101083.44;;;17.77;100.00
11440;BME280;5776;51.814;4.510;2023-07-30T08:58:25;101087.16;;;17.81;100.00
11440;BME280;5776;51.814;4.510;2023-07-30T09:00:53;101090.41;;;17.83;100.00
11440;BME280;5776;51.814;4.510;2023-07-30T09:03:22;101094.88;;;17.88;100.00
11440;BME280;5776;51.814;4.510;2023-07-30T09:05:48;101096.97;;;17.91;100.00
11440;BME280;5776;51.814;4.510;2023-07-30T09:08:14;101097.09;;;17.95;100.00
11440;BME280;5776;51.814;4.510;2023-07-30T09:10:40;101104.69;;;17.98;100.00
11440;BME280;5776;51.814;4.510;2023-07-30T09:13:06;101094.66;;;18.02;100.00
11440;BME280;5776;51.814;4.510;2023-07-30T09:15:36;101100.63;;;18.04;100.00
11440;BME280;5776;51.814;4.510;2023-07-30T09:18:06;101099.97;;;18.07;100.00
11440;BME280;5776;51.814;4.510;2023-07-30T09:20:41;101107.88;;;18.08;100.00
11440;BME280;5776;51.814;4.510;2023-07-30T09:23:08;101103.19;;;18.09;100.00
11440;BME280;5776;51.814;4.510;2023-07-30T09:25:35;101106.41;;;18.11;100.00
11440;BME280;5776;51.814;4.510;2023-07-30T09:28:00;101115.78;;;18.10;100.00
11440;BME280;5776;51.814;4.510;2023-07-30T09:30:26;101119.31;;;18.10;100.00
11440;BME280;5776;51.814;4.510;2023-07-30T09:32:56;101115.78;;;18.10;100.00
11440;BME280;5776;51.814;4.510;2023-07-30T09:35:23;101120.78;;;18.08;100.00
11440;BME280;5776;51.814;4.510;2023-07-30T09:38:02;101128.25;;;18.07;100.00
11440;BME280;5776;51.814;4.510;2023-07-30T09:40:35;101131.34;;;18.06;100.00
11440;BME280;5776;51.814;4.510;2023-07-30T09:43:03;101138.44;;;18.07;100.00
11440;BME280;5776;51.814;4.510;2023-07-30T09:45:28;101137.28;;;18.08;100.00
11440;BME280;5776;51.814;4.510;2023-07-30T09:47:58;101135.38;;;18.08;100.00
11440;BME280;5776;51.814;4.510;2023-07-30T09:50:23;101140.50;;;18.10;100.00
11440;BME280;5776;51.814;4.510;2023-07-30T09:52:49;101142.13;;;18.11;100.00
11440;BME280;5776;51.814;4.510;2023-07-30T09:55:15;101142.13;;;18.11;100.00
11440;BME280;5776;51.814;4.510;2023-07-30T09:57:40;101135.50;;;18.12;100.00
11440;BME280;5776;51.814;4.510;2023-07-30T10:00:07;101143.41;;;18.13;100.00
11440;BME280;5776;51.814;4.510;2023-07-30T10:02:39;101141.47;;;18.14;100.00
11440;BME280;5776;51.814;4.510;2023-07-30T10:05:11;101146.28;;;18.17;100.00
11440;BME280;5776;51.814;4.510;2023-07-30T10:07:41;101156.50;;;18.17;100.00
11440;BME280;5776;51.814;4.510;2023-07-30T10:10:08;101158.88;;;18.18;100.00
11440;BME280;5776;51.814;4.510;2023-07-30T10:12:35;101158.56;;;18.20;100.00
11440;BME280;5776;51.814;4.510;2023-07-30T10:15:01;101157.78;;;18.19;100.00
11440;BME280;5776;51.814;4.510;2023-07-30T10:17:27;101153.56;;;18.22;100.00
11440;BME280;5776;51.814;4.510;2023-07-30T10:19:57;101170.53;;;18.24;100.00
11440;BME280;5776;51.814;4.510;2023-07-30T10:22:23;101164.34;;;18.27;100.00
11440;BME280;5776;51.814;4.510;2023-07-30T10:25:02;101171.63;;;18.31;100.00
11440;BME280;5776;51.814;4.510;2023-07-30T10:27:36;101169.00;;;18.35;100.00
11440;BME280;5776;51.814;4.510;2023-07-30T10:30:10;101175.94;;;18.41;100.00
11440;BME280;5776;51.814;4.510;2023-07-30T10:35:41;101173.09;;;18.50;100.00
11440;BME280;5776;51.814;4.510;2023-07-30T10:40:59;101164.19;;;18.53;100.00
11440;BME280;5776;51.814;4.510;2023-07-30T10:43:51;101166.41;;;18.60;100.00
11440;BME280;5776;51.814;4.510;2023-07-30T10:46:18;101162.66;;;18.64;100.00
11440;BME280;5776;51.814;4.510;2023-07-30T10:48:46;101168.63;;;18.66;100.00
11440;BME280;5776;51.814;4.510;2023-07-30T10:51:14;101175.06;;;18.70;100.00
11440;BME280;5776;51.814;4.510;2023-07-30T10:53:45;101187.34;;;18.73;100.00
11440;BME280;5776;51.814;4.510;2023-07-30T10:56:12;101185.41;;;18.73;100.00
11440;BME280;5776;51.814;4.510;2023-07-30T10:58:39;101193.03;;;18.76;100.00
11440;BME280;5776;51.814;4.510;2023-07-30T11:01:06;101189.94;;;18.78;100.00
11440;BME280;5776;51.814;4.510;2023-07-30T11:03:32;101197.06;;;18.79;100.00
11440;BME280;5776;51.814;4.510;2023-07-30T11:06:00;101204.97;;;18.81;100.00
11440;BME280;5776;51.814;4.510;2023-07-30T11:08:34;101191.69;;;18.83;100.00
11440;BME280;5776;51.814;4.510;2023-07-30T11:11:00;101200.53;;;18.88;100.00
11440;BME280;5776;51.814;4.510;2023-07-30T11:13:26;101191.94;;;18.90;100.00
11440;BME280;5776;51.814;4.510;2023-07-30T11:15:53;101200.31;;;18.93;100.00
11440;BME280;5776;51.814;4.510;2023-07-30T11:18:19;101202.06;;;18.98;100.00
11440;BME280;5776;51.814;4.510;2023-07-30T11:20:44;101208.53;;;19.02;100.00
11440;BME280;5776;51.814;4.510;2023-07-30T11:23:20;101209.91;;;19.08;100.00
11440;BME280;5776;51.814;4.510;2023-07-30T11:25:50;101202.13;;;19.10;100.00
11440;BME280;5776;51.814;4.510;2023-07-30T11:28:36;101206.63;;;19.15;100.00
11440;BME280;5776;51.814;4.510;2023-07-30T11:31:07;101211.47;;;19.18;100.00
11440;BME280;5776;51.814;4.510;2023-07-30T11:33:35;101219.88;;;19.21;100.00
11440;BME280;5776;51.814;4.510;2023-07-30T11:36:02;101219.19;;;19.25;100.00
11440;BME280;5776;51.814;4.510;2023-07-30T11:38:30;101224.00;;;19.28;100.00
11440;BME280;5776;51.814;4.510;2023-07-30T11:40:58;101228.03;;;19.30;100.00
11440;BME280;5776;51.814;4.510;2023-07-30T11:43:25;101236.78;;;19.32;100.00
11440;BME280;5776;51.814;4.510;2023-07-30T11:46:17;101241.13;;;19.33;100.00
11440;BME280;5776;51.814;4.510;2023-07-30T11:48:46;101225.88;;;19.36;100.00
11440;BME280;5776;51.814;4.510;2023-07-30T11:51:26;101233.50;;;19.39;100.00
11440;BME280;5776;51.814;4.510;2023-07-30T11:53:55;101227.97;;;19.39;100.00
11440;BME280;5776;51.814;4.510;2023-07-30T11:56:29;101230.03;;;19.42;100.00
11440;BME280;5776;51.814;4.510;2023-07-30T11:59:00;101234.06;;;19.45;100.00
11440;BME280;5776;51.814;4.510;2023-07-30T12:01:29;101223.53;;;19.47;100.00
11440;BME280;5776;51.814;4.510;2023-07-30T12:03:56;101229.84;;;19.47;100.00
11440;BME280;5776;51.814;4.510;2023-07-30T12:06:22;101234.66;;;19.50;100.00
11440;BME280;5776;51.814;4.510;2023-07-30T12:08:49;101226.88;;;19.52;100.00
11440;BME280;5776;51.814;4.510;2023-07-30T12:11:17;101244.34;;;19.56;100.00
11440;BME280;5776;51.814;4.510;2023-07-30T12:13:44;101231.38;;;19.57;100.00
11440;BME280;5776;51.814;4.510;2023-07-30T12:16:15;101227.59;;;19.61;100.00
11440;BME280;5776;51.814;4.510;2023-07-30T12:18:41;101228.03;;;19.63;100.00
11440;BME280;5776;51.814;4.510;2023-07-30T12:21:08;101221.41;;;19.64;100.00
11440;BME280;5776;51.814;4.510;2023-07-30T12:23:37;101221.22;;;19.70;100.00
11440;BME280;5776;51.814;4.510;2023-07-30T12:26:03;101224.09;;;19.73;100.00
11440;BME280;5776;51.814;4.510;2023-07-30T12:28:32;101221.94;;;19.79;99.92
11440;BME280;5776;51.814;4.510;2023-07-30T12:30:58;101218.97;;;19.84;99.88
11440;BME280;5776;51.814;4.510;2023-07-30T12:33:25;101228.13;;;19.88;99.52
11440;BME280;5776;51.814;4.510;2023-07-30T12:35:51;101227.44;;;19.91;99.40
11440;BME280;5776;51.814;4.510;2023-07-30T12:38:17;101226.09;;;19.97;100.00
11440;BME280;5776;51.814;4.510;2023-07-30T12:40:43;101237.69;;;20.03;99.89
11440;BME280;5776;51.814;4.510;2023-07-30T12:43:08;101237.81;;;20.06;98.51
11440;BME280;5776;51.814;4.510;2023-07-30T12:45:35;101230.00;;;20.08;97.20
11440;BME280;5776;51.814;4.510;2023-07-30T12:48:01;101234.84;;;20.12;98.12
11440;BME280;5776;51.814;4.510;2023-07-30T12:50:35;101237.25;;;20.13;97.71
11440;BME280;5776;51.814;4.510;2023-07-30T12:53:01;101234.94;;;20.15;96.11
11440;BME280;5776;51.814;4.510;2023-07-30T12:55:28;101238.50;;;20.16;95.55